Time;durP1;ratioP1;P1;durP2;ratioP2;P2;SDS_P1;SDS_P2;PMS_P1;PMS_P2;Temp;Humidity;BMP_temperature;BMP_pressure;BME280_temperature;BME280_humidity;BME280_pressure;Samples;Min_cycle;Max_cycle;Signal;HPM_P1;HPM_P2
2021/09/02 00:00:42;;;;;;;3.57;3.37;;;16.40;99.90;;;;;;5074036;28;20480;-65
2021/09/02 00:03:10;;;;;;;7.23;3.60;;;16.40;99.90;;;;;;5099887;28;20181;-64
2021/09/02 00:05:40;;;;;;;6.43;3.50;;;16.40;99.90;;;;;;5103632;28;20185;-64
2021/09/02 00:08:09;;;;;;;3.23;3.03;;;16.40;99.90;;;;;;5099360;28;20199;-65
2021/09/02 00:10:37;;;;;;;6.27;3.43;;;16.40;99.90;;;;;;5079335;28;20202;-65
2021/09/02 00:13:06;;;;;;;4.63;3.50;;;16.40;99.90;;;;;;5087321;28;20177;-65
2021/09/02 00:15:34;;;;;;;3.37;3.10;;;16.30;99.90;;;;;;5103581;28;20171;-65
2021/09/02 00:18:03;;;;;;;5.27;3.60;;;16.30;99.90;;;;;;5107765;28;20284;-64
2021/09/02 00:20:32;;;;;;;4.77;3.20;;;16.30;99.90;;;;;;5093986;28;20190;-64
2021/09/02 00:23:01;;;;;;;5.63;3.70;;;16.30;99.90;;;;;;5103745;28;20179;-64
2021/09/02 00:25:30;;;;;;;5.50;3.77;;;16.30;99.90;;;;;;5100657;28;20179;-65
2021/09/02 00:27:59;;;;;;;3.90;3.50;;;16.30;99.90;;;;;;5110709;28;20203;-65
2021/09/02 00:30:28;;;;;;;5.80;3.80;;;16.20;99.90;;;;;;5106988;28;20543;-65
2021/09/02 00:32:56;;;;;;;4.30;3.90;;;16.20;99.90;;;;;;5103283;28;20428;-64
2021/09/02 00:35:24;;;;;;;4.73;3.60;;;16.20;99.90;;;;;;5104993;28;20180;-65
2021/09/02 00:37:53;;;;;;;4.37;3.47;;;16.20;99.90;;;;;;5085981;28;20168;-65
2021/09/02 00:40:23;;;;;;;5.50;3.47;;;16.20;99.90;;;;;;5107770;28;20202;-64
2021/09/02 00:42:51;;;;;;;4.40;3.37;;;16.20;99.90;;;;;;5101373;28;20183;-65
2021/09/02 00:45:20;;;;;;;3.63;3.33;;;16.20;99.90;;;;;;5103728;28;20176;-65
2021/09/02 00:47:48;;;;;;;4.27;3.50;;;16.20;99.90;;;;;;5103436;28;20201;-64
2021/09/02 00:50:16;;;;;;;5.20;3.47;;;16.10;99.90;;;;;;5108260;28;20186;-65
2021/09/02 00:52:45;;;;;;;4.83;3.67;;;16.20;99.90;;;;;;5101507;28;20172;-65
2021/09/02 00:55:14;;;;;;;6.27;3.53;;;16.10;99.90;;;;;;5103472;28;20183;-65
2021/09/02 00:57:43;;;;;;;4.47;3.33;;;16.10;99.90;;;;;;5102353;28;20448;-64
2021/09/02 01:00:14;;;;;;;6.30;4.13;;;16.10;99.90;;;;;;5105127;28;20179;-65
2021/09/02 01:02:44;;;;;;;3.70;3.40;;;16.10;99.90;;;;;;5103114;28;20468;-65
2021/09/02 01:05:14;;;;;;;3.83;3.53;;;16.10;99.90;;;;;;5100992;28;20183;-64
2021/09/02 01:07:44;;;;;;;4.97;3.57;;;16.10;99.90;;;;;;5106614;28;20202;-65
2021/09/02 01:10:12;;;;;;;4.07;3.37;;;16.10;99.90;;;;;;5085259;28;20176;-64
2021/09/02 01:12:43;;;;;;;3.83;3.50;;;16.10;99.90;;;;;;5103645;28;20179;-65
2021/09/02 01:15:13;;;;;;;5.17;3.83;;;16.10;99.90;;;;;;5106657;28;20187;-65
2021/09/02 01:17:43;;;;;;;5.33;3.80;;;16.10;99.90;;;;;;5108595;28;20171;-65
2021/09/02 01:20:14;;;;;;;7.13;3.70;;;16.10;99.90;;;;;;5083888;28;20184;-64
2021/09/02 01:22:44;;;;;;;4.60;3.87;;;16.10;99.90;;;;;;5108822;28;20733;-65
2021/09/02 01:25:16;;;;;;;5.23;3.50;;;16.10;99.90;;;;;;5103015;28;20301;-64
2021/09/02 01:27:49;;;;;;;4.07;3.60;;;16.10;99.90;;;;;;5103377;28;20246;-65
2021/09/02 01:30:18;;;;;;;4.50;3.47;;;16.00;99.90;;;;;;5088292;28;20176;-65
2021/09/02 01:32:49;;;;;;;4.13;3.53;;;16.00;99.90;;;;;;5101439;28;20336;-65
2021/09/02 01:35:18;;;;;;;4.40;4.07;;;16.00;99.90;;;;;;5086069;28;20200;-65
2021/09/02 01:37:49;;;;;;;6.47;4.23;;;16.00;99.90;;;;;;5087557;28;20173;-64
2021/09/02 01:40:20;;;;;;;9.70;4.13;;;16.00;99.90;;;;;;5080544;28;20377;-64
2021/09/02 01:42:50;;;;;;;4.03;3.70;;;16.00;99.90;;;;;;5052159;28;20168;-64
2021/09/02 01:45:20;;;;;;;4.97;3.53;;;15.90;99.90;;;;;;5082555;28;20432;-64
2021/09/02 01:47:49;;;;;;;4.67;3.77;;;15.90;99.90;;;;;;5082455;28;20179;-64
2021/09/02 01:50:21;;;;;;;8.07;4.20;;;16.00;99.90;;;;;;5063143;28;20181;-64
2021/09/02 01:52:51;;;;;;;6.63;4.50;;;15.90;99.90;;;;;;5094072;28;20179;-64
2021/09/02 01:55:22;;;;;;;6.53;4.70;;;16.00;99.90;;;;;;5083088;28;20176;-65
2021/09/02 01:57:51;;;;;;;4.73;4.13;;;15.90;99.90;;;;;;5071073;28;20298;-64
2021/09/02 02:00:23;;;;;;;5.53;4.33;;;15.90;99.90;;;;;;5077929;28;20220;-64
2021/09/02 02:02:52;;;;;;;7.07;4.60;;;15.90;99.90;;;;;;5072478;28;20372;-64
2021/09/02 02:05:22;;;;;;;7.50;4.50;;;15.90;99.90;;;;;;5082244;28;20192;-64
2021/09/02 02:07:50;;;;;;;7.50;4.40;;;15.90;99.90;;;;;;5077448;28;20173;-64
2021/09/02 02:10:26;;;;;;;6.17;4.73;;;16.00;99.90;;;;;;5083945;28;20362;-65
2021/09/02 02:12:55;;;;;;;5.07;4.53;;;16.00;99.90;;;;;;5075469;28;20263;-64
2021/09/02 02:15:25;;;;;;;6.90;4.90;;;16.00;99.90;;;;;;5080697;28;20259;-65
2021/09/02 02:17:54;;;;;;;7.93;4.73;;;16.00;99.90;;;;;;5081428;28;20487;-65
2021/09/02 02:20:23;;;;;;;7.03;4.73;;;16.00;99.90;;;;;;5083372;28;20677;-65
2021/09/02 02:22:52;;;;;;;5.73;4.63;;;16.00;99.90;;;;;;5085359;28;20321;-65
2021/09/02 02:25:22;;;;;;;9.10;5.60;;;15.90;99.90;;;;;;5082841;28;20429;-65
2021/09/02 02:27:50;;;;;;;5.93;4.53;;;15.90;99.90;;;;;;5088996;28;20200;-64
2021/09/02 02:30:20;;;;;;;6.90;4.77;;;15.90;99.90;;;;;;5083206;28;20179;-65
2021/09/02 02:32:49;;;;;;;5.37;4.87;;;15.90;99.90;;;;;;5085799;28;20172;-65
2021/09/02 02:35:18;;;;;;;7.63;4.73;;;15.90;99.90;;;;;;5082497;28;20191;-64
2021/09/02 02:37:47;;;;;;;6.33;4.60;;;15.90;99.90;;;;;;5093996;28;20214;-65
2021/09/02 02:40:16;;;;;;;8.20;4.63;;;15.90;99.90;;;;;;5090455;28;20297;-64
2021/09/02 02:42:46;;;;;;;5.60;4.47;;;15.90;99.90;;;;;;5083045;28;20455;-64
2021/09/02 02:45:15;;;;;;;5.23;4.53;;;15.80;99.90;;;;;;5080707;28;20433;-64
2021/09/02 02:47:43;;;;;;;4.90;4.40;;;15.80;99.90;;;;;;5062272;28;20176;-65
2021/09/02 02:50:14;;;;;;;6.67;5.03;;;15.80;99.90;;;;;;5086994;28;20254;-65
2021/09/02 02:52:42;;;;;;;7.80;5.00;;;15.80;99.90;;;;;;5079605;28;20199;-64
2021/09/02 02:55:11;;;;;;;6.23;4.90;;;15.80;99.90;;;;;;5084653;28;20188;-65
2021/09/02 02:57:40;;;;;;;7.80;5.00;;;15.80;99.90;;;;;;5091294;28;20226;-64
2021/09/02 03:00:11;;;;;;;8.60;5.57;;;15.80;99.90;;;;;;5073623;28;20344;-64
2021/09/02 03:02:40;;;;;;;6.40;5.13;;;15.70;99.90;;;;;;5080295;28;20180;-65
2021/09/02 03:05:09;;;;;;;10.17;6.57;;;15.70;99.90;;;;;;5066532;28;20187;-65
2021/09/02 03:07:38;;;;;;;8.77;6.33;;;15.70;99.90;;;;;;5081826;28;20437;-64
2021/09/02 03:10:08;;;;;;;10.33;5.93;;;15.70;99.90;;;;;;5068209;28;20455;-64
2021/09/02 03:12:37;;;;;;;7.57;5.70;;;15.70;99.90;;;;;;5081448;28;20179;-65
2021/09/02 03:15:07;;;;;;;11.77;6.90;;;15.70;99.90;;;;;;5060606;28;21063;-64
2021/09/02 03:17:37;;;;;;;7.40;5.47;;;15.70;99.90;;;;;;5058587;28;20175;-64
2021/09/02 03:20:07;;;;;;;9.03;6.03;;;15.70;99.90;;;;;;5084324;28;20180;-65
2021/09/02 03:22:35;;;;;;;7.17;5.00;;;15.70;99.90;;;;;;5080109;28;20184;-65
2021/09/02 03:25:05;;;;;;;8.47;6.10;;;15.70;99.90;;;;;;5089142;28;20194;-65
2021/09/02 03:27:34;;;;;;;9.37;6.00;;;15.60;99.90;;;;;;5085783;28;20180;-64
2021/09/02 03:30:05;;;;;;;7.93;5.27;;;15.60;99.90;;;;;;5080486;28;20203;-65
2021/09/02 03:32:34;;;;;;;6.87;5.93;;;15.60;99.90;;;;;;5088871;28;20180;-64
2021/09/02 03:35:04;;;;;;;8.50;6.23;;;15.60;99.90;;;;;;5081874;28;20196;-65
2021/09/02 03:37:34;;;;;;;11.77;5.87;;;15.50;99.90;;;;;;5084162;28;20195;-65
2021/09/02 03:40:02;;;;;;;6.17;5.37;;;15.50;99.90;;;;;;5091070;28;20195;-64
2021/09/02 03:42:30;;;;;;;9.87;6.40;;;15.50;99.90;;;;;;5093722;28;20372;-64
2021/09/02 03:44:59;;;;;;;10.13;5.23;;;15.40;99.90;;;;;;5086934;28;20456;-65
2021/09/02 03:47:28;;;;;;;9.83;6.10;;;15.40;99.90;;;;;;5084032;28;20196;-64
2021/09/02 03:49:56;;;;;;;10.00;6.07;;;15.40;99.90;;;;;;5083562;28;20513;-64
2021/09/02 03:52:27;;;;;;;8.70;5.33;;;15.40;99.90;;;;;;5081684;28;20192;-64
2021/09/02 03:54:56;;;;;;;8.10;5.93;;;15.40;99.90;;;;;;5085446;28;20194;-64
2021/09/02 03:57:24;;;;;;;10.93;5.90;;;15.30;99.90;;;;;;5084138;28;20283;-64
2021/09/02 03:59:52;;;;;;;9.40;5.63;;;15.30;99.90;;;;;;5085324;28;20199;-64
2021/09/02 04:02:21;;;;;;;9.87;5.53;;;15.30;99.90;;;;;;5083022;28;20278;-65
2021/09/02 04:04:49;;;;;;;10.13;5.50;;;15.30;99.90;;;;;;5086506;28;20490;-64
2021/09/02 04:07:18;;;;;;;11.80;5.90;;;15.30;99.90;;;;;;5071074;28;20345;-65
2021/09/02 04:09:48;;;;;;;7.67;6.10;;;15.30;99.90;;;;;;5083721;28;20202;-65
2021/09/02 04:12:16;;;;;;;9.80;5.50;;;15.30;99.90;;;;;;5087565;28;20183;-64
2021/09/02 04:15:26;;;;;;;7.60;5.80;;;15.30;99.90;;;;;;5085337;28;20195;-65
2021/09/02 04:17:54;;;;;;;8.50;5.70;;;15.30;99.90;;;;;;5085279;28;20184;-64
2021/09/02 04:20:23;;;;;;;8.27;5.40;;;15.30;99.90;;;;;;5083459;28;20179;-64
2021/09/02 04:22:51;;;;;;;10.10;6.37;;;15.30;99.90;;;;;;5087758;28;20221;-64
2021/09/02 04:25:22;;;;;;;10.43;6.80;;;15.40;99.90;;;;;;5085355;28;20425;-64
2021/09/02 04:27:51;;;;;;;9.57;6.00;;;15.30;99.90;;;;;;5085755;28;20188;-64
2021/09/02 04:30:19;;;;;;;11.43;6.97;;;15.30;99.90;;;;;;5069117;28;20245;-64
2021/09/02 04:32:48;;;;;;;7.43;5.80;;;15.30;99.90;;;;;;5081868;28;20194;-65
2021/09/02 04:35:17;;;;;;;8.80;6.10;;;15.30;99.90;;;;;;5081358;28;20592;-64
2021/09/02 04:37:47;;;;;;;11.87;7.20;;;15.30;99.90;;;;;;5094365;28;20188;-64
2021/09/02 04:40:17;;;;;;;9.30;6.77;;;15.30;99.90;;;;;;5087308;28;20332;-64
2021/09/02 04:42:47;;;;;;;12.43;7.70;;;15.30;99.90;;;;;;5083439;28;20202;-64
2021/09/02 04:45:15;;;;;;;8.80;6.87;;;15.30;99.90;;;;;;5084988;28;20480;-65
2021/09/02 04:47:44;;;;;;;12.23;7.47;;;15.30;99.90;;;;;;5088389;28;20372;-65
2021/09/02 04:50:13;;;;;;;12.93;6.77;;;15.30;99.90;;;;;;5082870;28;20206;-65
2021/09/02 04:52:42;;;;;;;13.63;7.80;;;15.30;99.90;;;;;;5081045;28;20184;-64
2021/09/02 04:55:11;;;;;;;13.77;7.27;;;15.30;99.90;;;;;;5078575;28;20226;-64
2021/09/02 04:57:40;;;;;;;12.57;7.90;;;15.30;99.90;;;;;;5084294;28;20176;-64
2021/09/02 05:00:11;;;;;;;9.73;6.80;;;15.30;99.90;;;;;;5085401;28;20179;-65
2021/09/02 05:02:40;;;;;;;21.37;8.30;;;15.30;99.90;;;;;;5070627;28;20191;-65
2021/09/02 05:05:09;;;;;;;15.87;7.90;;;15.30;99.90;;;;;;5088185;28;20181;-64
2021/09/02 05:07:37;;;;;;;12.33;8.10;;;15.30;99.90;;;;;;5087823;28;20228;-64
2021/09/02 05:10:07;;;;;;;16.13;8.63;;;15.30;99.90;;;;;;5084535;28;20204;-65
2021/09/02 05:12:36;;;;;;;17.50;8.20;;;15.30;99.90;;;;;;5063874;28;20180;-65
2021/09/02 05:15:05;;;;;;;17.50;8.03;;;15.20;99.90;;;;;;5090409;28;20297;-64
2021/09/02 05:17:35;;;;;;;18.40;8.93;;;15.20;99.90;;;;;;5068359;28;20172;-64
2021/09/02 05:20:05;;;;;;;11.23;7.83;;;15.20;99.90;;;;;;5085377;28;20175;-65
2021/09/02 05:22:33;;;;;;;12.93;8.27;;;15.20;99.90;;;;;;5078842;28;20204;-65
2021/09/02 05:25:01;;;;;;;13.33;8.37;;;15.30;99.90;;;;;;5085611;28;20176;-65
2021/09/02 05:27:32;;;;;;;17.93;8.13;;;15.20;99.90;;;;;;5087039;28;20189;-64
2021/09/02 05:30:01;;;;;;;15.93;7.63;;;15.30;99.90;;;;;;5092637;28;20195;-64
2021/09/02 05:32:29;;;;;;;15.23;8.43;;;15.30;99.90;;;;;;5067133;28;20184;-65
2021/09/02 05:34:59;;;;;;;12.90;8.80;;;15.30;99.90;;;;;;5084176;28;20179;-64
2021/09/02 05:37:28;;;;;;;11.87;7.63;;;15.30;99.90;;;;;;5092750;28;20183;-64
2021/09/02 05:39:56;;;;;;;14.97;8.20;;;15.30;99.90;;;;;;5081414;28;20176;-64
2021/09/02 05:42:25;;;;;;;12.47;7.83;;;15.40;99.90;;;;;;5079245;28;20192;-65
2021/09/02 05:44:53;;;;;;;15.97;8.00;;;15.40;99.90;;;;;;5080135;28;20180;-65
2021/09/02 05:47:23;;;;;;;15.27;8.10;;;15.40;99.90;;;;;;5063762;28;20179;-64
2021/09/02 05:49:51;;;;;;;12.43;7.90;;;15.40;99.90;;;;;;5086932;28;20188;-65
2021/09/02 05:52:21;;;;;;;14.40;7.57;;;15.40;99.90;;;;;;5063899;28;20177;-64
2021/09/02 05:54:53;;;;;;;12.17;8.60;;;15.50;99.90;;;;;;5084419;28;20179;-64
2021/09/02 05:57:23;;;;;;;13.83;8.37;;;15.50;99.90;;;;;;5078884;28;20429;-64
2021/09/02 05:59:51;;;;;;;15.37;8.50;;;15.50;99.90;;;;;;5080994;28;20175;-64
2021/09/02 06:02:19;;;;;;;12.47;8.33;;;15.60;99.90;;;;;;5059083;28;20224;-65
2021/09/02 06:04:48;;;;;;;15.73;8.47;;;15.60;99.90;;;;;;5063999;28;20447;-65
2021/09/02 06:07:17;;;;;;;19.17;8.73;;;15.60;99.90;;;;;;5068499;28;20234;-64
2021/09/02 06:09:46;;;;;;;15.90;8.40;;;15.70;99.90;;;;;;5054779;28;20200;-65
2021/09/02 06:12:15;;;;;;;16.77;9.93;;;15.70;99.90;;;;;;5078186;28;20566;-64
2021/09/02 06:14:43;;;;;;;16.27;8.90;;;15.70;99.90;;;;;;5066756;28;20226;-64
2021/09/02 06:17:11;;;;;;;13.93;9.43;;;15.80;99.90;;;;;;5053890;28;20192;-65
2021/09/02 06:19:40;;;;;;;15.03;9.33;;;15.80;99.90;;;;;;5060441;28;20173;-65
2021/09/02 06:22:09;;;;;;;14.07;8.80;;;15.80;99.90;;;;;;5062382;28;20361;-64
2021/09/02 06:24:37;;;;;;;19.83;9.37;;;15.80;99.90;;;;;;5072248;28;20180;-64
2021/09/02 06:27:07;;;;;;;17.73;9.07;;;15.90;99.90;;;;;;5063501;28;20453;-64
2021/09/02 06:29:36;;;;;;;21.20;9.80;;;16.00;99.90;;;;;;5066949;28;20173;-64
2021/09/02 06:32:05;;;;;;;16.37;8.63;;;16.00;99.90;;;;;;5072004;28;20200;-64
2021/09/02 06:34:34;;;;;;;16.37;9.63;;;16.10;99.90;;;;;;5059595;28;20196;-64
2021/09/02 06:37:02;;;;;;;14.80;9.77;;;16.10;99.90;;;;;;5057213;28;20190;-64
2021/09/02 06:39:31;;;;;;;23.43;9.30;;;16.20;99.90;;;;;;5058042;28;20188;-65
2021/09/02 06:41:59;;;;;;;18.63;10.17;;;16.20;99.90;;;;;;5061542;28;20176;-64
2021/09/02 06:44:29;;;;;;;16.10;10.47;;;16.30;99.90;;;;;;5060887;28;20176;-64
2021/09/02 06:46:57;;;;;;;19.87;10.43;;;16.30;99.90;;;;;;5056674;28;20216;-65
2021/09/02 06:49:26;;;;;;;19.07;10.27;;;16.30;99.90;;;;;;5057880;28;20207;-65
2021/09/02 06:51:54;;;;;;;16.53;9.63;;;16.40;99.90;;;;;;5052746;28;20491;-64
2021/09/02 06:54:22;;;;;;;21.97;10.73;;;16.50;99.90;;;;;;5039071;28;20315;-64
2021/09/02 06:56:51;;;;;;;19.13;9.93;;;16.60;99.90;;;;;;5055518;28;20181;-64
2021/09/02 06:59:20;;;;;;;16.73;10.00;;;16.70;99.90;;;;;;5052630;28;20187;-64
2021/09/02 07:01:49;;;;;;;17.47;10.57;;;16.80;99.90;;;;;;5071532;28;20475;-65
2021/09/02 07:04:18;;;;;;;15.47;9.60;;;17.00;99.90;;;;;;5076676;28;20185;-64
2021/09/02 07:06:46;;;;;;;16.63;9.37;;;17.20;99.90;;;;;;5083277;28;20276;-65
2021/09/02 07:09:15;;;;;;;20.23;10.10;;;17.40;99.90;;;;;;5078112;28;20267;-65
2021/09/02 07:11:45;;;;;;;16.77;9.40;;;17.50;99.90;;;;;;5080330;28;20192;-65
2021/09/02 07:14:14;;;;;;;14.87;9.83;;;17.60;99.90;;;;;;5064167;28;20180;-64
2021/09/02 07:16:42;;;;;;;17.03;9.77;;;17.70;99.90;;;;;;5076982;28;20221;-65
2021/09/02 07:19:14;;;;;;;17.73;9.43;;;17.60;99.90;;;;;;5084574;28;20226;-64
2021/09/02 07:21:43;;;;;;;18.83;9.30;;;17.60;99.90;;;;;;5084569;28;20210;-65
2021/09/02 07:24:11;;;;;;;15.97;9.20;;;17.60;99.90;;;;;;5083722;28;20180;-64
2021/09/02 07:26:40;;;;;;;15.63;8.90;;;17.70;99.90;;;;;;5083669;28;20182;-65
2021/09/02 07:29:09;;;;;;;16.10;9.60;;;17.80;99.90;;;;;;5084157;28;20183;-65
2021/09/02 07:31:39;;;;;;;17.17;8.87;;;18.00;99.90;;;;;;5080034;28;20204;-65
2021/09/02 07:34:08;;;;;;;16.60;8.23;;;18.00;99.90;;;;;;5082887;28;20653;-64
2021/09/02 07:36:38;;;;;;;14.87;8.23;;;18.10;99.90;;;;;;5063840;28;20175;-65
2021/09/02 07:39:12;;;;;;;17.83;9.00;;;18.10;99.90;;;;;;5079645;28;20625;-64
2021/09/02 07:41:40;;;;;;;13.77;8.50;;;18.00;99.90;;;;;;5064592;28;20546;-65
2021/09/02 07:44:09;;;;;;;14.10;8.93;;;17.90;99.90;;;;;;5080943;28;20371;-65
2021/09/02 07:46:37;;;;;;;16.90;8.93;;;17.80;99.90;;;;;;5082687;28;20330;-65
2021/09/02 07:49:06;;;;;;;14.00;8.00;;;17.80;99.90;;;;;;5077762;28;20301;-65
2021/09/02 07:51:34;;;;;;;12.80;7.90;;;17.80;99.90;;;;;;5083057;28;20223;-65
2021/09/02 07:54:04;;;;;;;13.63;8.53;;;18.00;99.90;;;;;;5080689;28;20439;-65
2021/09/02 07:56:32;;;;;;;16.10;8.60;;;18.10;99.90;;;;;;5078973;28;20671;-64
2021/09/02 07:59:03;;;;;;;14.07;8.77;;;18.10;99.90;;;;;;5080812;28;20193;-65
2021/09/02 08:01:31;;;;;;;16.90;9.27;;;18.20;99.90;;;;;;5081521;28;20216;-64
2021/09/02 08:04:00;;;;;;;18.43;9.50;;;18.30;99.90;;;;;;5082959;28;20184;-65
2021/09/02 08:06:29;;;;;;;13.97;9.30;;;18.40;99.90;;;;;;5082065;28;20180;-64
2021/09/02 08:08:57;;;;;;;18.57;10.77;;;18.50;99.90;;;;;;5085164;28;20227;-64
2021/09/02 08:11:27;;;;;;;18.07;10.13;;;18.50;99.90;;;;;;5081474;28;20196;-65
2021/09/02 08:13:56;;;;;;;21.00;9.83;;;18.60;99.90;;;;;;5078642;28;20184;-64
2021/09/02 08:16:25;;;;;;;19.63;10.10;;;18.70;99.90;;;;;;5084503;28;20183;-65
2021/09/02 08:18:54;;;;;;;17.57;11.10;;;18.80;99.90;;;;;;5087226;28;20191;-65
2021/09/02 08:21:23;;;;;;;16.87;10.67;;;18.90;99.90;;;;;;5081513;28;20225;-64
2021/09/02 08:23:52;;;;;;;16.07;9.93;;;19.00;99.90;;;;;;5079158;28;20234;-65
2021/09/02 08:26:20;;;;;;;19.23;10.67;;;19.10;99.90;;;;;;5085971;28;20179;-64
2021/09/02 08:28:50;;;;;;;16.57;10.00;;;19.30;99.90;;;;;;5082370;28;20229;-65
2021/09/02 08:31:18;;;;;;;18.67;10.43;;;19.30;99.90;;;;;;5081597;28;20184;-65
2021/09/02 08:33:47;;;;;;;14.83;9.33;;;19.40;99.90;;;;;;5085222;28;20184;-64
2021/09/02 08:36:16;;;;;;;15.30;10.33;;;19.30;99.90;;;;;;5084223;28;20213;-65
2021/09/02 08:38:47;;;;;;;20.40;10.87;;;19.40;99.90;;;;;;5082063;28;20192;-65
2021/09/02 08:41:16;;;;;;;14.30;9.93;;;19.60;99.90;;;;;;5081033;28;20221;-65
2021/09/02 08:43:45;;;;;;;15.20;10.97;;;19.70;99.90;;;;;;5064884;28;20374;-65
2021/09/02 08:46:33;;;;;;;17.67;11.10;;;19.80;99.90;;;;;;5082987;28;20184;-65
2021/09/02 08:49:04;;;;;;;16.07;11.30;;;19.70;99.90;;;;;;5084335;28;20417;-65
2021/09/02 08:51:36;;;;;;;19.97;11.27;;;19.80;99.90;;;;;;5082733;28;20469;-65
2021/09/02 08:54:05;;;;;;;14.80;11.03;;;19.70;99.90;;;;;;5085432;28;20184;-65
2021/09/02 08:56:33;;;;;;;19.40;12.30;;;19.90;99.90;;;;;;5080904;28;20176;-65
2021/09/02 08:59:01;;;;;;;19.77;11.53;;;20.10;99.90;;;;;;5080002;28;20188;-64
2021/09/02 09:01:30;;;;;;;18.83;11.50;;;20.10;99.90;;;;;;5081784;28;20211;-65
2021/09/02 09:04:10;;;;;;;18.47;12.23;;;20.20;99.90;;;;;;5079530;28;20184;-64
2021/09/02 09:06:39;;;;;;;20.03;11.87;;;20.50;99.90;;;;;;5065531;28;20187;-64
2021/09/02 09:09:12;;;;;;;18.70;12.33;;;20.60;99.90;;;;;;5082301;28;20192;-65
2021/09/02 09:11:47;;;;;;;18.87;11.63;;;20.60;99.90;;;;;;5085126;28;20254;-65
2021/09/02 09:14:19;;;;;;;17.80;11.80;;;20.60;99.90;;;;;;5086692;28;20182;-65
2021/09/02 09:16:50;;;;;;;18.33;11.47;;;20.40;99.90;;;;;;5066102;28;20218;-65
2021/09/02 09:19:40;;;;;;;18.57;11.67;;;20.40;99.90;;;;;;5082269;28;20259;-64
2021/09/02 09:22:11;;;;;;;19.17;11.90;;;20.60;99.90;;;;;;5081605;28;20188;-65
2021/09/02 09:24:44;;;;;;;20.23;12.07;;;20.80;99.90;;;;;;5085107;28;20176;-65
2021/09/02 09:27:13;;;;;;;22.17;12.50;;;21.00;99.90;;;;;;5073515;28;20180;-64
2021/09/02 09:29:41;;;;;;;21.90;12.60;;;20.90;99.90;;;;;;5079297;28;20172;-65
2021/09/02 09:32:18;;;;;;;17.27;11.17;;;20.80;99.90;;;;;;5081892;28;20274;-65
2021/09/02 09:34:53;;;;;;;21.80;11.87;;;20.80;99.90;;;;;;5063036;28;20222;-65
2021/09/02 09:37:22;;;;;;;24.37;12.67;;;20.90;99.90;;;;;;5075103;28;20183;-65
2021/09/02 09:39:50;;;;;;;24.23;12.83;;;20.90;99.90;;;;;;5085075;28;20176;-65
2021/09/02 09:42:19;;;;;;;20.40;12.70;;;20.70;99.90;;;;;;5083865;28;20172;-65
2021/09/02 09:44:48;;;;;;;24.37;12.10;;;20.70;99.90;;;;;;5070888;28;20434;-65
2021/09/02 09:47:18;;;;;;;18.57;11.77;;;20.80;99.90;;;;;;5081328;28;20263;-65
2021/09/02 09:49:53;;;;;;;20.77;12.13;;;20.70;99.90;;;;;;5064154;28;20187;-65
2021/09/02 09:52:27;;;;;;;18.37;11.57;;;20.80;99.90;;;;;;5077882;28;20502;-65
2021/09/02 09:55:03;;;;;;;20.03;11.07;;;20.80;99.90;;;;;;5060465;28;20184;-65
2021/09/02 09:57:33;;;;;;;23.73;13.00;;;21.00;99.90;;;;;;5076575;28;20189;-65
2021/09/02 10:00:06;;;;;;;19.60;11.83;;;21.40;99.90;;;;;;5063109;28;20222;-65
2021/09/02 10:02:36;;;;;;;20.77;11.93;;;21.80;99.90;;;;;;5059271;28;20211;-65
2021/09/02 10:05:08;;;;;;;18.07;11.53;;;21.70;99.90;;;;;;5082782;28;20203;-64
2021/09/02 10:07:39;;;;;;;21.43;12.37;;;21.40;99.90;;;;;;5080410;28;20379;-65
2021/09/02 10:10:11;;;;;;;22.97;12.37;;;21.20;99.90;;;;;;5080256;28;20187;-65
2021/09/02 10:12:40;;;;;;;19.47;12.07;;;21.30;99.90;;;;;;5084272;28;20192;-65
2021/09/02 10:15:11;;;;;;;20.77;12.03;;;21.20;99.90;;;;;;5081042;28;20180;-65
2021/09/02 10:17:41;;;;;;;22.03;12.50;;;21.30;99.90;;;;;;5082050;28;20230;-64
2021/09/02 10:20:17;;;;;;;19.67;12.73;;;21.10;99.90;;;;;;5083921;28;20188;-64
2021/09/02 10:22:49;;;;;;;18.67;11.87;;;20.90;99.90;;;;;;5064168;28;20182;-65
2021/09/02 10:25:38;;;;;;;22.97;11.67;;;21.00;99.90;;;;;;5080120;28;20183;-65
2021/09/02 10:28:09;;;;;;;19.60;11.80;;;21.30;99.90;;;;;;5080718;28;20193;-65
2021/09/02 10:30:43;;;;;;;19.13;11.20;;;21.40;99.90;;;;;;5080086;28;20233;-64
2021/09/02 10:33:45;;;;;;;16.83;10.57;;;21.30;99.90;;;;;;5077961;28;20203;-64
2021/09/02 10:36:41;;;;;;;19.63;10.97;;;21.30;99.90;;;;;;5038932;28;20228;-65
2021/09/02 10:39:09;;;;;;;16.87;11.27;;;21.70;99.90;;;;;;5035661;28;20276;-65
2021/09/02 10:41:49;;;;;;;21.17;11.30;;;21.80;99.90;;;;;;5049897;28;20187;-65
2021/09/02 10:44:20;;;;;;;20.37;11.30;;;21.80;99.90;;;;;;5079041;28;20184;-65
2021/09/02 10:46:51;;;;;;;20.00;11.40;;;22.00;99.90;;;;;;5079310;28;20188;-64
2021/09/02 10:49:23;;;;;;;16.73;10.80;;;21.90;99.90;;;;;;5079615;28;20188;-65
2021/09/02 10:51:56;;;;;;;20.67;11.50;;;21.50;99.90;;;;;;5080479;28;20199;-64
2021/09/02 10:54:26;;;;;;;18.00;10.90;;;21.20;99.90;;;;;;5060689;28;20348;-64
2021/09/02 10:57:04;;;;;;;21.97;11.90;;;21.40;99.90;;;;;;5073306;28;20179;-65
2021/09/02 10:59:50;;;;;;;20.93;11.17;;;21.50;99.90;;;;;;5078662;28;20179;-64
2021/09/02 11:02:40;;;;;;;23.60;12.97;;;21.30;99.90;;;;;;5078865;28;20239;-64
2021/09/02 11:05:12;;;;;;;18.30;10.97;;;21.20;99.90;;;;;;5078197;28;20196;-64
2021/09/02 11:07:43;;;;;;;14.43;9.53;;;21.30;99.90;;;;;;5076506;28;20219;-65
2021/09/02 11:10:15;;;;;;;17.37;10.60;;;21.50;99.90;;;;;;5060142;28;20446;-65
2021/09/02 11:12:44;;;;;;;21.33;11.37;;;21.80;99.90;;;;;;5085799;28;20180;-65
2021/09/02 11:15:22;;;;;;;18.20;11.47;;;22.20;99.90;;;;;;5062721;28;20180;-64
2021/09/02 11:17:52;;;;;;;16.83;10.80;;;22.40;99.90;;;;;;5080696;28;20427;-64
2021/09/02 11:20:42;;;;;;;18.83;10.70;;;22.40;99.90;;;;;;5083054;28;20191;-64
2021/09/02 11:23:14;;;;;;;21.70;11.93;;;22.10;99.90;;;;;;5078638;28;20191;-65
2021/09/02 11:25:45;;;;;;;20.87;11.83;;;22.00;99.90;;;;;;5079808;28;20184;-64
2021/09/02 11:28:14;;;;;;;19.83;11.73;;;22.20;99.90;;;;;;5061712;28;20187;-65
2021/09/02 11:30:42;;;;;;;22.53;11.60;;;22.60;99.90;;;;;;5080344;28;20180;-65
2021/09/02 11:33:11;;;;;;;18.20;11.10;;;22.80;99.90;;;;;;5083056;28;20199;-65
2021/09/02 11:35:39;;;;;;;15.60;10.67;;;23.00;99.90;;;;;;5080047;28;20207;-65
2021/09/02 11:38:08;;;;;;;15.63;11.13;;;23.10;99.90;;;;;;5080389;28;20459;-65
2021/09/02 11:40:38;;;;;;;16.83;10.13;;;23.00;99.90;;;;;;5076418;28;20178;-65
2021/09/02 11:43:16;;;;;;;13.97;9.87;;;22.90;99.90;;;;;;5080227;28;20498;-65
2021/09/02 11:45:51;;;;;;;16.77;10.70;;;23.00;99.90;;;;;;5062275;28;20219;-65
2021/09/02 11:48:20;;;;;;;13.97;10.07;;;23.30;99.90;;;;;;5086652;28;20373;-65
2021/09/02 11:50:58;;;;;;;17.27;10.03;;;23.70;99.90;;;;;;5081893;28;20201;-65
2021/09/02 11:53:27;;;;;;;15.73;10.03;;;24.20;99.90;;;;;;5079525;28;20499;-64
2021/09/02 11:56:10;;;;;;;14.63;9.87;;;24.10;99.90;;;;;;5082192;28;20191;-64
2021/09/02 11:58:38;;;;;;;13.43;9.30;;;23.80;99.90;;;;;;5086073;28;20182;-65
2021/09/02 12:01:07;;;;;;;18.00;10.13;;;23.70;99.90;;;;;;5077394;28;20268;-65
2021/09/02 12:03:37;;;;;;;15.47;10.57;;;23.90;99.90;;;;;;5080461;28;20178;-64
2021/09/02 12:06:05;;;;;;;19.13;10.47;;;23.80;99.90;;;;;;5083040;28;20225;-65
2021/09/02 12:08:35;;;;;;;20.03;10.70;;;23.80;99.90;;;;;;5082069;28;20193;-65
2021/09/02 12:11:05;;;;;;;17.90;10.90;;;23.40;99.90;;;;;;5081452;28;20275;-64
2021/09/02 12:13:38;;;;;;;15.07;9.90;;;23.50;99.90;;;;;;5060035;28;20212;-65
2021/09/02 12:16:08;;;;;;;16.50;9.83;;;23.40;99.90;;;;;;5083484;28;20181;-65
2021/09/02 12:18:38;;;;;;;16.73;10.20;;;23.20;99.90;;;;;;5079764;28;20178;-64
2021/09/02 12:21:11;;;;;;;20.57;11.60;;;23.20;99.90;;;;;;5081576;28;20191;-65
2021/09/02 12:23:51;;;;;;;14.53;11.13;;;23.10;99.90;;;;;;5081996;28;20349;-65
2021/09/02 12:26:23;;;;;;;16.50;11.57;;;23.10;99.90;;;;;;5080944;28;20272;-65
2021/09/02 12:28:54;;;;;;;15.23;10.47;;;23.10;99.90;;;;;;5081897;28;20184;-64
2021/09/02 12:31:25;;;;;;;18.70;10.90;;;23.00;99.90;;;;;;5082501;28;20182;-64
2021/09/02 12:34:02;;;;;;;17.00;10.80;;;22.90;99.90;;;;;;5089121;28;20212;-64
2021/09/02 12:36:31;;;;;;;15.77;10.07;;;23.20;99.90;;;;;;5083502;28;20219;-64
2021/09/02 12:39:18;;;;;;;17.03;10.37;;;23.50;99.90;;;;;;5082909;28;20189;-65
2021/09/02 12:41:50;;;;;;;17.90;10.10;;;24.00;99.90;;;;;;5082749;28;20189;-65
2021/09/02 12:44:24;;;;;;;19.47;10.73;;;23.80;99.90;;;;;;5080721;28;20186;-65
2021/09/02 12:47:03;;;;;;;13.57;10.10;;;23.30;99.90;;;;;;5082605;28;20240;-65
2021/09/02 12:49:39;;;;;;;17.77;10.37;;;23.00;99.90;;;;;;5084009;28;20282;-64
2021/09/02 12:52:15;;;;;;;16.23;10.80;;;22.80;99.90;;;;;;5083355;28;20248;-63